Hlavní strana
METAR-TAF:

METAR-TAF

Letiště :

High Level, Alberta, Kanada

zeměpisná šířka: 58-37N, zeměpisná délka: 117-10W, výška: 338 m

Aktuální stav počasí

Zpráva byla vytvořena před 33 minutami, v 20:00 UTC
Jihojihovýchodní vítr 6 kt, proměnlivý mezi jihovýchodním a jihozápadním
Teplota 8°C
Vlhkost vzduchu 53%
Tlak 1006 hPa
Viditelnost: 24.1 km
Oblačno až skoro zataženo ve výšce 10000 ft
Oblačno až skoro zataženo ve výšce 23000 ft

METAR: CYOJ 232000Z 16006KT 130V220 15SM BKN100 BKN230 08/M01 A2971 RMK AC5CI2 SLP080

Čas: 14:33 (20:33 UTC)

Předpověď počasí

Zpráva byla vytvořena před 1 hodinou a 55 minutami, v 18:38 UTC
Předpověď platná od 23 v 19 UTC do 24 v 07 UTC
Jihojihovýchodní vítr 8 kt
Viditelnost: 10 km
Polojasno ve výšce 8000 ft
Oblačno až skoro zataženo ve výšce 20000 ft
Změna
od 24 v 00 UTC do 24 v 02 UTC
vítr z různých směrů 3 kt

TAF: CYOJ 231838Z 2319/2407 16008KT P6SM SCT080 BKN200 BECMG 2400/2402 VRB03KT RMK NXT FCST BY 240100Z

Stav a předpovědi počasí z více než 4 000 letišť (zprávy METAR a TAF).

Červené a žluté tečky na mapě představují dostupné meteorologické stanice.

Když kurzor umístíte na tečku, zobrazí se název stanice.

Pak kliknutím zobrazíte stav a předpověď počasí.

Chcete-li změnit mapu, kliknutím na zelené tlačítko se znaménkem +mapu přiblížíte, kliknutím na zelené tlačítko se znaménkem – mapu oddálíte a kliknutím na zelené šipky přejdete na sousední mapy.


METAR-TAF: